Time;durP1;ratioP1;P1;durP2;ratioP2;P2;SDS_P1;SDS_P2;PMS_P1;PMS_P2;Temp;Humidity;BMP_temperature;BMP_pressure;BME280_temperature;BME280_humidity;BME280_pressure;Samples;Min_cycle;Max_cycle;Signal;HPM_P1;HPM_P2
2023/11/25 00:01:29;;;;;;;1.98;1.20;;;18.60;38.50;;;;;;5072963;28;20310;-60
2023/11/25 00:03:56;;;;;;;1.80;1.27;;;18.60;37.90;;;;;;5072472;28;20193;-59
2023/11/25 00:06:22;;;;;;;2.05;1.10;;;18.60;38.50;;;;;;5072706;28;20234;-59
2023/11/25 00:08:51;;;;;;;1.50;1.00;;;18.60;38.50;;;;;;5072591;28;20339;-59
2023/11/25 00:11:18;;;;;;;2.95;1.10;;;18.60;37.80;;;;;;5072353;28;20225;-58
2023/11/25 00:13:44;;;;;;;1.45;0.93;;;18.60;38.50;;;;;;5072419;28;20252;-61
2023/11/25 00:16:11;;;;;;;2.00;1.20;;;18.60;37.80;;;;;;5072662;28;20222;-58
2023/11/25 00:18:38;;;;;;;1.63;1.10;;;18.60;37.70;;;;;;5072486;28;20281;-59
2023/11/25 00:21:05;;;;;;;2.60;1.35;;;18.60;38.40;;;;;;5072296;28;20716;-60
2023/11/25 00:23:32;;;;;;;2.75;1.27;;;18.60;37.80;;;;;;5072574;28;20270;-62
2023/11/25 00:26:01;;;;;;;1.65;1.00;;;18.50;38.30;;;;;;5072026;28;20303;-60
2023/11/25 00:28:28;;;;;;;1.90;1.17;;;18.50;37.70;;;;;;5072300;28;20191;-58
2023/11/25 00:30:54;;;;;;;2.75;1.20;;;18.50;37.70;;;;;;5072403;28;20183;-57
2023/11/25 00:33:21;;;;;;;2.72;0.82;;;18.50;38.40;;;;;;5072155;28;20274;-58
2023/11/25 00:35:49;;;;;;;2.40;1.10;;;18.50;38.30;;;;;;5072322;28;20191;-59
2023/11/25 00:38:15;;;;;;;3.33;1.20;;;18.50;38.30;;;;;;5072311;28;20218;-55
2023/11/25 00:40:42;;;;;;;1.42;0.90;;;18.50;37.70;;;;;;5071762;28;20644;-60
2023/11/25 00:43:11;;;;;;;1.80;1.15;;;18.50;38.30;;;;;;5072534;28;20224;-62
2023/11/25 00:45:38;;;;;;;2.67;1.00;;;18.50;38.30;;;;;;5072336;28;20619;-58
2023/11/25 00:48:06;;;;;;;4.70;1.50;;;18.50;37.70;;;;;;5071788;28;20309;-59
2023/11/25 00:50:33;;;;;;;3.13;1.05;;;18.50;37.70;;;;;;5072235;28;20256;-58
2023/11/25 00:53:00;;;;;;;2.03;1.15;;;18.50;37.70;;;;;;5071961;28;20783;-60
2023/11/25 00:55:27;;;;;;;2.13;1.23;;;18.50;38.40;;;;;;5071822;28;20233;-59
2023/11/25 00:57:54;;;;;;;2.20;1.20;;;18.50;37.70;;;;;;5072054;28;20215;-57
2023/11/25 01:00:26;;;;;;;1.77;0.95;;;18.50;37.70;;;;;;5072246;28;20195;-59
2023/11/25 01:02:54;;;;;;;1.75;0.90;;;18.50;37.70;;;;;;5071945;28;20364;-56
2023/11/25 01:05:21;;;;;;;1.63;1.00;;;18.50;37.70;;;;;;5072042;28;20305;-58
2023/11/25 01:07:48;;;;;;;3.30;1.13;;;18.50;37.70;;;;;;5072053;28;20266;-60
2023/11/25 01:10:14;;;;;;;1.88;1.00;;;18.40;37.60;;;;;;5071362;28;20322;-56
2023/11/25 01:12:41;;;;;;;1.20;1.10;;;18.40;38.20;;;;;;5072121;28;20218;-62
2023/11/25 01:15:11;;;;;;;1.80;0.90;;;18.40;37.60;;;;;;5072115;28;20598;-57
2023/11/25 01:17:39;;;;;;;3.20;1.27;;;18.40;37.60;;;;;;5071323;28;20219;-59
2023/11/25 01:20:09;;;;;;;1.92;0.93;;;18.40;37.70;;;;;;5071916;28;20187;-58
2023/11/25 01:22:36;;;;;;;3.17;1.17;;;18.40;37.60;;;;;;5071769;28;20222;-59
2023/11/25 01:25:03;;;;;;;4.15;1.70;;;18.40;37.70;;;;;;5071449;28;20197;-60
2023/11/25 01:27:30;;;;;;;1.38;0.80;;;18.40;37.60;;;;;;5072023;28;20310;-60
2023/11/25 01:29:57;;;;;;;2.38;1.00;;;18.40;38.30;;;;;;5071894;28;20417;-57
2023/11/25 01:32:25;;;;;;;1.83;1.00;;;18.40;38.30;;;;;;5071402;28;20219;-60
2023/11/25 01:34:53;;;;;;;1.83;1.10;;;18.40;37.60;;;;;;5071870;28;20204;-55
2023/11/25 01:37:21;;;;;;;2.75;1.15;;;18.40;37.60;;;;;;5071705;28;20225;-60
2023/11/25 01:39:48;;;;;;;1.80;1.00;;;18.40;38.30;;;;;;5073215;28;21078;-59
2023/11/25 01:42:15;;;;;;;2.42;1.13;;;18.40;37.60;;;;;;5075601;28;20219;-56
2023/11/25 01:44:42;;;;;;;1.23;0.93;;;18.40;37.70;;;;;;5075511;28;20202;-59
2023/11/25 01:47:10;;;;;;;3.63;1.17;;;18.40;37.60;;;;;;5074722;28;20279;-60
2023/11/25 01:49:37;;;;;;;1.88;1.23;;;18.40;37.70;;;;;;5075370;28;20226;-59
2023/11/25 01:52:08;;;;;;;2.83;1.10;;;18.40;37.70;;;;;;5075317;28;20198;-61
2023/11/25 01:54:36;;;;;;;2.75;1.00;;;18.40;37.70;;;;;;5074738;28;20199;-56
2023/11/25 01:57:04;;;;;;;1.85;1.10;;;18.40;38.30;;;;;;5074910;28;20720;-57
2023/11/25 01:59:33;;;;;;;3.10;1.10;;;18.40;37.70;;;;;;5075432;28;20198;-60
2023/11/25 02:02:01;;;;;;;2.35;1.15;;;18.30;37.60;;;;;;5074546;28;20187;-59
2023/11/25 02:04:28;;;;;;;2.55;1.02;;;18.30;37.60;;;;;;5074885;28;20194;-57
2023/11/25 02:06:55;;;;;;;1.60;1.10;;;18.30;37.60;;;;;;5075043;28;20219;-59
2023/11/25 02:09:24;;;;;;;3.42;1.15;;;18.30;37.70;;;;;;5074391;28;20326;-60
2023/11/25 02:11:55;;;;;;;4.03;1.00;;;18.30;37.70;;;;;;5074689;28;20365;-60
2023/11/25 02:14:22;;;;;;;1.90;1.10;;;18.30;37.70;;;;;;5074589;28;20735;-60
2023/11/25 02:16:49;;;;;;;2.17;0.95;;;18.30;38.30;;;;;;5074792;28;20281;-54
2023/11/25 02:19:18;;;;;;;2.35;1.05;;;18.30;37.70;;;;;;5075006;28;20219;-60
2023/11/25 02:21:45;;;;;;;2.70;1.10;;;18.30;38.40;;;;;;5074527;28;20286;-59
2023/11/25 02:24:13;;;;;;;2.60;1.00;;;18.30;37.70;;;;;;5074628;28;20310;-59
2023/11/25 02:26:40;;;;;;;3.00;1.13;;;18.30;37.70;;;;;;5074621;28;20297;-56
2023/11/25 02:29:07;;;;;;;2.63;1.20;;;18.30;37.70;;;;;;5074576;28;20700;-59
2023/11/25 02:31:34;;;;;;;2.25;1.30;;;18.30;37.70;;;;;;5074343;28;20191;-57
2023/11/25 02:34:01;;;;;;;3.53;1.30;;;18.20;38.30;;;;;;5074492;28;20305;-60
2023/11/25 02:36:28;;;;;;;2.17;0.90;;;18.30;37.80;;;;;;5074617;28;20233;-61
2023/11/25 02:38:55;;;;;;;1.60;1.13;;;18.30;37.80;;;;;;5074344;28;20218;-57
2023/11/25 02:41:23;;;;;;;2.15;1.20;;;18.20;37.70;;;;;;5074549;28;20282;-54
2023/11/25 02:43:51;;;;;;;2.00;1.10;;;18.20;37.70;;;;;;5074510;28;20215;-58
2023/11/25 02:46:18;;;;;;;2.63;1.15;;;18.20;38.30;;;;;;5073984;28;20219;-61
2023/11/25 02:48:45;;;;;;;1.55;1.10;;;18.20;38.40;;;;;;5073953;28;20310;-61
2023/11/25 02:51:12;;;;;;;1.60;1.00;;;18.20;37.70;;;;;;5074252;28;20194;-58
2023/11/25 02:53:39;;;;;;;2.00;1.20;;;18.20;37.80;;;;;;5073754;28;20695;-56
2023/11/25 02:56:07;;;;;;;1.52;1.05;;;18.20;37.80;;;;;;5074024;28;20571;-53
2023/11/25 02:58:36;;;;;;;2.60;1.30;;;18.20;37.80;;;;;;5073900;28;20621;-61
2023/11/25 03:01:07;;;;;;;1.63;1.30;;;18.20;38.40;;;;;;5073775;28;20187;-59
2023/11/25 03:03:41;;;;;;;2.35;1.20;;;18.20;37.80;;;;;;5073770;28;20242;-58
2023/11/25 03:06:09;;;;;;;2.35;1.30;;;18.20;37.80;;;;;;5053886;28;20318;-62
2023/11/25 03:08:36;;;;;;;3.67;1.30;;;18.20;37.80;;;;;;5053611;28;20219;-58
2023/11/25 03:11:11;;;;;;;2.20;1.20;;;18.20;38.40;;;;;;5064373;28;20201;-55
2023/11/25 03:13:41;;;;;;;3.20;1.50;;;18.20;38.50;;;;;;5073797;28;20182;-56
2023/11/25 03:16:10;;;;;;;1.67;1.17;;;18.20;37.80;;;;;;5073542;28;20189;-58
2023/11/25 03:18:37;;;;;;;2.65;1.20;;;18.20;37.80;;;;;;5073749;28;20197;-55
2023/11/25 03:21:04;;;;;;;3.58;1.20;;;18.20;38.40;;;;;;5073652;28;20187;-60
2023/11/25 03:23:30;;;;;;;2.38;1.20;;;18.20;37.80;;;;;;5073492;28;20281;-57
2023/11/25 03:25:57;;;;;;;3.35;1.40;;;18.20;37.80;;;;;;5073479;28;20217;-56
2023/11/25 03:28:25;;;;;;;2.10;1.10;;;18.20;37.80;;;;;;5073279;28;20191;-58
2023/11/25 03:30:54;;;;;;;2.58;1.40;;;18.20;38.50;;;;;;5073786;28;20575;-56
2023/11/25 03:33:20;;;;;;;2.55;1.20;;;18.10;37.80;;;;;;5073517;28;20194;-59
2023/11/25 03:35:48;;;;;;;2.22;1.48;;;18.10;37.80;;;;;;5073575;28;20306;-60
2023/11/25 03:38:15;;;;;;;2.35;1.30;;;18.10;38.40;;;;;;5072664;28;20187;-58
2023/11/25 03:40:42;;;;;;;2.03;1.48;;;18.10;37.70;;;;;;5073687;28;20226;-58
2023/11/25 03:43:09;;;;;;;2.47;1.15;;;18.10;37.70;;;;;;5072962;28;20683;-57
2023/11/25 03:45:36;;;;;;;3.25;1.42;;;18.10;37.70;;;;;;5072896;28;20880;-60
2023/11/25 03:48:06;;;;;;;3.28;1.65;;;18.10;37.70;;;;;;5072812;28;20285;-60
2023/11/25 03:50:33;;;;;;;3.08;1.38;;;18.10;37.80;;;;;;5072965;28;20735;-55
2023/11/25 03:53:02;;;;;;;4.18;1.50;;;18.00;37.70;;;;;;5072786;28;20190;-59
2023/11/25 03:55:29;;;;;;;1.80;1.20;;;18.10;37.80;;;;;;5073222;28;20221;-59
2023/11/25 03:57:55;;;;;;;3.17;1.50;;;18.10;37.80;;;;;;5073024;28;20183;-57
2023/11/25 04:00:22;;;;;;;2.63;1.60;;;18.10;38.40;;;;;;5072836;28;20306;-58
2023/11/25 04:02:51;;;;;;;3.15;1.40;;;18.00;37.70;;;;;;5072586;28;20270;-56
2023/11/25 04:05:20;;;;;;;3.80;1.75;;;18.10;37.80;;;;;;5072873;28;20297;-58
2023/11/25 04:07:47;;;;;;;2.75;1.50;;;18.00;38.40;;;;;;5072399;28;20219;-60
2023/11/25 04:10:15;;;;;;;2.50;1.75;;;18.00;37.70;;;;;;5072337;28;20336;-60
2023/11/25 04:12:43;;;;;;;2.75;1.73;;;18.00;37.70;;;;;;5072746;28;20202;-56
2023/11/25 04:15:11;;;;;;;2.10;1.48;;;18.00;37.70;;;;;;5072080;28;20214;-60
2023/11/25 04:17:38;;;;;;;2.88;1.50;;;18.00;37.70;;;;;;5072373;28;20224;-58
2023/11/25 04:20:12;;;;;;;2.22;1.30;;;18.00;37.70;;;;;;5072787;28;20237;-58
2023/11/25 04:22:42;;;;;;;2.17;1.50;;;18.00;37.60;;;;;;5071995;28;20222;-57
2023/11/25 04:25:10;;;;;;;2.50;1.60;;;18.00;37.70;;;;;;5069442;28;20211;-60
2023/11/25 04:27:39;;;;;;;2.58;1.60;;;18.00;37.70;;;;;;5052185;28;20219;-59
2023/11/25 04:30:08;;;;;;;2.63;1.48;;;18.00;38.40;;;;;;5052226;28;20226;-59
2023/11/25 04:32:35;;;;;;;3.42;1.77;;;18.00;37.70;;;;;;5052460;28;20188;-55
2023/11/25 04:35:04;;;;;;;3.13;1.70;;;18.00;38.30;;;;;;5052526;28;20223;-59
2023/11/25 04:37:31;;;;;;;2.45;1.50;;;17.90;37.60;;;;;;5052034;28;20192;-58
2023/11/25 04:40:00;;;;;;;2.33;1.77;;;17.90;37.60;;;;;;5052316;28;20309;-57
2023/11/25 04:42:27;;;;;;;3.35;1.45;;;17.90;37.60;;;;;;5052110;28;20639;-59
2023/11/25 04:44:55;;;;;;;1.73;1.42;;;17.90;38.10;;;;;;5051938;28;20198;-56
2023/11/25 04:47:22;;;;;;;3.13;1.50;;;17.90;37.60;;;;;;5052226;28;20251;-56
2023/11/25 04:49:50;;;;;;;3.30;1.52;;;17.90;37.60;;;;;;5051895;28;20568;-59
2023/11/25 04:52:18;;;;;;;2.35;1.60;;;17.90;37.70;;;;;;5051631;28;20202;-58
2023/11/25 04:54:46;;;;;;;1.88;1.60;;;17.90;37.60;;;;;;5052214;28;20199;-57
2023/11/25 04:57:14;;;;;;;2.83;1.60;;;17.90;37.70;;;;;;5051882;28;20192;-59
2023/11/25 04:59:42;;;;;;;5.03;1.85;;;17.90;37.60;;;;;;5051846;28;20283;-57
2023/11/25 05:02:09;;;;;;;2.53;1.58;;;17.90;38.30;;;;;;5052074;28;20184;-58
2023/11/25 05:04:36;;;;;;;4.15;1.95;;;17.80;38.20;;;;;;5060399;28;20190;-62
2023/11/25 05:07:04;;;;;;;3.38;1.50;;;17.90;37.60;;;;;;5071749;28;20316;-58
2023/11/25 05:09:31;;;;;;;3.92;1.80;;;17.80;37.50;;;;;;5071578;28;20241;-60
2023/11/25 05:11:59;;;;;;;2.53;1.67;;;17.80;37.50;;;;;;5072063;28;20214;-59
2023/11/25 05:14:27;;;;;;;3.47;1.48;;;17.80;37.60;;;;;;5073216;28;20214;-57
2023/11/25 05:16:55;;;;;;;2.50;1.60;;;17.80;38.20;;;;;;5076365;28;20250;-61
2023/11/25 05:19:22;;;;;;;2.38;1.48;;;17.80;37.60;;;;;;5076212;28;20264;-59
2023/11/25 05:21:50;;;;;;;5.03;1.98;;;17.80;37.60;;;;;;5075448;28;20219;-59
2023/11/25 05:24:17;;;;;;;2.40;1.45;;;17.80;37.50;;;;;;5076112;28;20182;-57
2023/11/25 05:26:44;;;;;;;2.83;2.00;;;17.80;37.60;;;;;;5076005;28;20240;-56
2023/11/25 05:29:11;;;;;;;2.60;1.70;;;17.80;38.10;;;;;;5075528;28;20222;-60
2023/11/25 05:31:39;;;;;;;2.60;1.60;;;17.80;38.20;;;;;;5076049;28;20277;-57
2023/11/25 05:34:06;;;;;;;4.07;1.95;;;17.80;38.20;;;;;;5075766;28;20274;-58
2023/11/25 05:36:34;;;;;;;3.40;1.83;;;17.80;37.70;;;;;;5075329;28;20230;-55
2023/11/25 05:39:02;;;;;;;2.92;1.98;;;17.80;37.90;;;;;;5075413;28;20762;-60
2023/11/25 05:41:28;;;;;;;2.80;1.58;;;17.80;38.60;;;;;;5075355;28;20301;-60
2023/11/25 05:43:57;;;;;;;3.17;1.63;;;17.80;38.60;;;;;;5075349;28;20275;-60
2023/11/25 05:46:24;;;;;;;2.92;1.85;;;17.90;38.60;;;;;;5075539;28;20218;-59
2023/11/25 05:48:54;;;;;;;3.08;1.65;;;17.90;38.00;;;;;;5075522;28;20293;-59
2023/11/25 05:51:22;;;;;;;3.67;1.90;;;18.00;37.90;;;;;;5075029;28;20263;-58
2023/11/25 05:53:49;;;;;;;2.47;1.80;;;18.00;37.80;;;;;;5075450;28;20191;-55
2023/11/25 05:56:20;;;;;;;3.92;1.80;;;18.20;37.70;;;;;;5075463;28;20581;-59
2023/11/25 05:58:47;;;;;;;3.65;2.00;;;18.20;37.60;;;;;;5074612;28;20248;-61
2023/11/25 06:01:14;;;;;;;3.83;1.75;;;18.30;37.50;;;;;;5074911;28;20712;-59
2023/11/25 06:03:43;;;;;;;3.17;1.80;;;18.40;37.40;;;;;;5075156;28;20191;-58
2023/11/25 06:06:12;;;;;;;4.18;2.00;;;18.40;37.20;;;;;;5074864;28;20233;-60
2023/11/25 06:08:39;;;;;;;3.58;1.83;;;18.50;37.80;;;;;;5074708;28;20218;-58
2023/11/25 06:11:05;;;;;;;4.55;2.28;;;18.60;36.90;;;;;;5073773;28;20217;-60
2023/11/25 06:13:32;;;;;;;2.67;1.90;;;18.70;37.00;;;;;;5073398;28;20576;-58
2023/11/25 06:15:59;;;;;;;3.55;1.70;;;18.70;36.70;;;;;;5073794;28;20301;-58
2023/11/25 06:18:26;;;;;;;3.63;1.88;;;18.80;36.60;;;;;;5073836;28;20218;-61
2023/11/25 06:20:53;;;;;;;3.03;1.77;;;18.90;36.60;;;;;;5073401;28;20240;-58
2023/11/25 06:23:21;;;;;;;3.40;1.73;;;18.90;37.10;;;;;;5073793;28;20191;-58
2023/11/25 06:25:48;;;;;;;3.72;1.80;;;19.00;37.00;;;;;;5073241;28;20186;-59
2023/11/25 06:28:15;;;;;;;3.38;1.80;;;19.10;36.30;;;;;;5072887;28;20733;-61
2023/11/25 06:30:43;;;;;;;3.28;1.77;;;19.10;36.80;;;;;;5073597;28;20270;-61
2023/11/25 06:33:10;;;;;;;2.15;1.58;;;19.20;36.10;;;;;;5073630;28;20195;-59
2023/11/25 06:35:37;;;;;;;2.22;1.58;;;19.20;35.90;;;;;;5073023;28;20262;-60
2023/11/25 06:38:04;;;;;;;3.38;1.92;;;19.30;35.90;;;;;;5073513;28;20264;-60
2023/11/25 06:40:34;;;;;;;3.38;1.83;;;19.30;35.80;;;;;;5073485;28;20189;-55
2023/11/25 06:43:01;;;;;;;4.45;2.10;;;19.40;35.90;;;;;;5072998;28;20717;-61
2023/11/25 06:45:28;;;;;;;3.53;1.90;;;19.40;35.90;;;;;;5073472;28;20186;-60
2023/11/25 06:47:55;;;;;;;3.97;2.20;;;19.40;36.00;;;;;;5073148;28;20269;-57
2023/11/25 06:50:22;;;;;;;3.17;1.90;;;19.50;36.70;;;;;;5073010;28;20269;-59
2023/11/25 06:52:50;;;;;;;2.70;1.75;;;19.50;35.80;;;;;;5073428;28;20276;-59
2023/11/25 06:55:18;;;;;;;3.47;1.85;;;19.50;35.60;;;;;;5073303;28;20195;-57
2023/11/25 06:57:49;;;;;;;3.17;1.70;;;19.60;35.70;;;;;;5072993;28;20218;-61
2023/11/25 07:00:17;;;;;;;4.20;1.95;;;19.60;35.50;;;;;;5072867;28;20187;-57
2023/11/25 07:02:44;;;;;;;3.30;1.63;;;19.70;35.60;;;;;;5073364;28;20215;-57
2023/11/25 07:05:13;;;;;;;2.83;1.65;;;19.70;35.50;;;;;;5072288;28;20229;-61
2023/11/25 07:07:41;;;;;;;3.08;1.75;;;19.70;36.10;;;;;;5072840;28;20654;-59
2023/11/25 07:10:10;;;;;;;3.20;1.88;;;19.70;35.40;;;;;;5035169;28;1090839;-60
2023/11/25 07:12:37;;;;;;;2.95;1.95;;;19.70;35.30;;;;;;5073633;28;20219;-56
2023/11/25 07:15:06;;;;;;;3.58;1.90;;;19.70;35.90;;;;;;5073939;28;20194;-59
2023/11/25 07:17:34;;;;;;;3.17;1.80;;;19.80;35.30;;;;;;5073825;28;20226;-61
2023/11/25 07:20:02;;;;;;;5.22;2.00;;;19.80;35.90;;;;;;5073461;28;20186;-61
2023/11/25 07:22:29;;;;;;;5.40;2.10;;;19.80;35.10;;;;;;5073769;28;20219;-61
2023/11/25 07:24:56;;;;;;;2.13;1.75;;;19.80;35.10;;;;;;5073724;28;20281;-57
2023/11/25 07:27:23;;;;;;;4.05;2.30;;;19.90;35.10;;;;;;5073243;28;20258;-58
2023/11/25 07:29:51;;;;;;;3.72;2.03;;;19.80;35.70;;;;;;5073551;28;20193;-59
2023/11/25 07:32:22;;;;;;;3.33;2.05;;;19.90;35.10;;;;;;5073582;28;20249;-59
2023/11/25 07:34:49;;;;;;;3.60;2.00;;;19.90;35.00;;;;;;5073136;28;20183;-58
2023/11/25 07:37:17;;;;;;;4.65;2.25;;;19.90;35.00;;;;;;5072476;28;20305;-58
2023/11/25 07:39:45;;;;;;;4.00;2.17;;;19.90;35.00;;;;;;5073120;28;20213;-58
2023/11/25 07:42:12;;;;;;;5.90;2.33;;;19.90;34.90;;;;;;5072979;28;20738;-58
2023/11/25 07:44:39;;;;;;;6.00;2.05;;;19.90;34.90;;;;;;5073423;28;20190;-54
2023/11/25 07:47:06;;;;;;;3.13;2.08;;;19.90;34.90;;;;;;5073056;28;20674;-57
2023/11/25 07:49:35;;;;;;;4.15;2.60;;;19.90;34.80;;;;;;5072503;28;20187;-58
2023/11/25 07:52:02;;;;;;;3.70;2.33;;;19.90;34.70;;;;;;5072858;28;20250;-59
2023/11/25 07:54:29;;;;;;;4.10;2.08;;;20.00;34.80;;;;;;5073120;28;20270;-57
2023/11/25 07:56:56;;;;;;;2.95;2.20;;;20.00;35.50;;;;;;5072597;28;20183;-58
2023/11/25 07:59:23;;;;;;;3.15;2.10;;;20.00;34.80;;;;;;5072932;28;20215;-56
2023/11/25 08:01:51;;;;;;;3.20;2.33;;;20.00;34.80;;;;;;5072865;28;20189;-56
2023/11/25 08:04:18;;;;;;;3.25;2.22;;;20.00;34.80;;;;;;5072591;28;20187;-57
2023/11/25 08:06:47;;;;;;;2.80;1.92;;;20.00;34.70;;;;;;5072734;28;20314;-56
2023/11/25 08:09:14;;;;;;;4.28;2.03;;;20.00;35.30;;;;;;5072536;28;20245;-59
2023/11/25 08:11:41;;;;;;;3.20;1.90;;;20.00;35.30;;;;;;5072349;28;20206;-59
2023/11/25 08:14:08;;;;;;;3.50;2.25;;;20.10;34.60;;;;;;5072682;28;20305;-60
2023/11/25 08:16:35;;;;;;;3.10;2.10;;;20.00;34.50;;;;;;5072669;28;20191;-56
2023/11/25 08:19:03;;;;;;;3.47;2.20;;;20.10;35.30;;;;;;5072203;28;20302;-59
2023/11/25 08:21:30;;;;;;;4.35;2.35;;;20.10;35.20;;;;;;5072612;28;20191;-60
2023/11/25 08:24:00;;;;;;;3.25;2.33;;;20.10;34.50;;;;;;5072668;28;20297;-58
2023/11/25 08:26:27;;;;;;;3.80;2.25;;;20.10;34.50;;;;;;5072360;28;20232;-60
2023/11/25 08:28:54;;;;;;;4.45;2.15;;;20.10;35.10;;;;;;5072501;28;20230;-58
2023/11/25 08:31:22;;;;;;;4.75;2.40;;;20.10;34.30;;;;;;5072491;28;20265;-59
2023/11/25 08:33:49;;;;;;;2.70;2.17;;;20.10;34.40;;;;;;5072467;28;20254;-56
2023/11/25 08:36:17;;;;;;;3.08;2.03;;;20.20;34.40;;;;;;5072294;28;20278;-59
2023/11/25 08:38:44;;;;;;;3.20;2.35;;;20.20;35.00;;;;;;5072494;28;20238;-57
2023/11/25 08:41:16;;;;;;;6.13;2.60;;;20.20;35.00;;;;;;5071966;28;20190;-57
2023/11/25 08:43:45;;;;;;;3.10;2.38;;;20.30;34.30;;;;;;5072437;28;20301;-58
2023/11/25 08:46:12;;;;;;;5.88;2.70;;;20.30;34.20;;;;;;5072366;28;20694;-58
2023/11/25 08:48:41;;;;;;;4.82;2.90;;;20.30;34.20;;;;;;5071809;28;20234;-60
2023/11/25 08:51:10;;;;;;;4.43;2.95;;;20.40;34.30;;;;;;5072034;28;20722;-60
2023/11/25 08:53:37;;;;;;;4.97;2.80;;;20.40;34.10;;;;;;5072233;28;20280;-58
2023/11/25 08:56:06;;;;;;;6.10;3.35;;;20.40;34.10;;;;;;5071639;28;20187;-56
2023/11/25 08:58:34;;;;;;;4.22;2.90;;;20.50;34.10;;;;;;5071869;28;20615;-58
2023/11/25 09:01:02;;;;;;;5.18;3.10;;;20.50;34.70;;;;;;5072070;28;20187;-59
2023/11/25 09:03:29;;;;;;;5.93;3.10;;;20.50;34.10;;;;;;5071537;28;20678;-54
2023/11/25 09:05:56;;;;;;;5.25;3.63;;;20.50;34.10;;;;;;5072010;28;20293;-59
2023/11/25 09:08:22;;;;;;;6.38;3.35;;;20.50;34.00;;;;;;5071661;28;20318;-57
2023/11/25 09:10:49;;;;;;;5.57;2.95;;;20.50;34.00;;;;;;5071429;28;20236;-59
2023/11/25 09:13:16;;;;;;;6.03;3.70;;;20.50;34.00;;;;;;5072073;28;20195;-58
2023/11/25 09:15:45;;;;;;;4.43;3.40;;;20.50;34.00;;;;;;5072021;28;20194;-60
2023/11/25 09:18:12;;;;;;;5.15;3.47;;;20.50;34.50;;;;;;5071936;28;20191;-57
2023/11/25 09:20:39;;;;;;;6.57;3.60;;;20.50;33.90;;;;;;5072020;28;20258;-57
2023/11/25 09:23:06;;;;;;;4.85;2.97;;;20.50;34.60;;;;;;5072018;28;20191;-57
2023/11/25 09:25:33;;;;;;;5.35;3.60;;;20.50;34.60;;;;;;5071610;28;20700;-58
2023/11/25 09:28:01;;;;;;;5.60;3.30;;;20.50;34.00;;;;;;5071491;28;20225;-60
2023/11/25 09:30:28;;;;;;;4.85;3.40;;;20.40;34.00;;;;;;5071993;28;20223;-61
2023/11/25 09:32:56;;;;;;;4.75;3.17;;;20.40;34.70;;;;;;5072020;28;20191;-56
2023/11/25 09:35:24;;;;;;;5.18;3.30;;;20.30;34.70;;;;;;5071493;28;20306;-59
2023/11/25 09:37:51;;;;;;;5.88;3.13;;;20.30;34.10;;;;;;5071650;28;20286;-57
2023/11/25 09:40:19;;;;;;;4.70;3.22;;;20.20;34.10;;;;;;5071966;28;20214;-56
2023/11/25 09:42:47;;;;;;;6.63;4.10;;;20.10;34.20;;;;;;5071063;28;20796;-57
2023/11/25 09:45:15;;;;;;;5.07;3.28;;;20.10;35.00;;;;;;5071706;28;20715;-59
2023/11/25 09:47:44;;;;;;;5.47;3.65;;;20.00;34.40;;;;;;5071351;28;20661;-56
2023/11/25 09:50:13;;;;;;;6.22;4.22;;;19.90;34.60;;;;;;5071358;28;20301;-57
2023/11/25 09:52:48;;;;;;;4.85;3.80;;;19.90;34.80;;;;;;5071662;28;20191;-58
2023/11/25 09:55:17;;;;;;;6.32;4.30;;;19.80;35.60;;;;;;5071486;28;20210;-58
2023/11/25 09:57:45;;;;;;;10.27;5.97;;;19.70;35.10;;;;;;5071626;28;20214;-58
2023/11/25 10:00:16;;;;;;;9.45;6.22;;;19.70;35.00;;;;;;5072603;28;20269;-60
2023/11/25 10:02:45;;;;;;;10.68;7.20;;;19.70;35.00;;;;;;5074846;28;20191;-59
2023/11/25 10:05:13;;;;;;;12.65;8.27;;;19.70;35.00;;;;;;5074940;28;20760;-57
2023/11/25 10:07:41;;;;;;;11.05;7.28;;;19.70;35.70;;;;;;5074965;28;20274;-55
2023/11/25 10:10:09;;;;;;;12.60;7.53;;;19.80;35.60;;;;;;5074365;28;20642;-58
2023/11/25 10:12:36;;;;;;;11.07;7.35;;;19.80;34.90;;;;;;5075027;28;20191;-58
2023/11/25 10:15:03;;;;;;;12.27;8.32;;;20.00;34.80;;;;;;5074818;28;20211;-59
2023/11/25 10:17:30;;;;;;;11.80;7.53;;;20.00;34.70;;;;;;5074641;28;20193;-58
2023/11/25 10:20:09;;;;;;;11.30;7.60;;;20.10;34.60;;;;;;5075351;28;20305;-59
2023/11/25 10:22:47;;;;;;;11.60;7.78;;;20.10;34.50;;;;;;5074637;28;20672;-60
2023/11/25 10:25:16;;;;;;;11.80;7.78;;;20.10;34.50;;;;;;5074516;28;20261;-57
2023/11/25 10:27:44;;;;;;;12.63;8.18;;;20.10;34.50;;;;;;5074824;28;20183;-60
2023/11/25 10:30:14;;;;;;;12.40;8.35;;;20.10;34.50;;;;;;5074381;28;20578;-58
2023/11/25 10:32:41;;;;;;;13.65;8.88;;;20.10;34.50;;;;;;5074458;28;20191;-57
2023/11/25 10:35:09;;;;;;;15.05;9.02;;;20.00;34.50;;;;;;5074650;28;20215;-59
2023/11/25 10:37:37;;;;;;;14.20;9.50;;;20.00;34.50;;;;;;5074650;28;20445;-59
2023/11/25 10:40:09;;;;;;;13.25;8.93;;;20.00;34.70;;;;;;5074223;28;20290;-60
2023/11/25 10:42:36;;;;;;;13.45;8.90;;;20.00;35.40;;;;;;5074555;28;20195;-60
2023/11/25 10:45:04;;;;;;;12.30;8.88;;;20.00;34.70;;;;;;5074134;28;20532;-56
2023/11/25 10:47:33;;;;;;;12.20;8.38;;;20.10;34.70;;;;;;5073944;28;20216;-58
2023/11/25 10:50:03;;;;;;;12.55;8.15;;;20.20;34.60;;;;;;5074287;28;20237;-59
2023/11/25 10:52:36;;;;;;;13.80;8.38;;;20.20;34.60;;;;;;5074380;28;20183;-58
2023/11/25 10:55:04;;;;;;;12.32;8.57;;;20.30;34.60;;;;;;5073906;28;20198;-60
2023/11/25 10:57:33;;;;;;;14.10;8.18;;;20.30;34.50;;;;;;5073931;28;20187;-58
2023/11/25 11:00:03;;;;;;;14.77;8.55;;;20.40;34.50;;;;;;5073885;28;20673;-59
2023/11/25 11:02:36;;;;;;;14.65;8.25;;;20.40;35.10;;;;;;5074095;28;20191;-56
2023/11/25 11:05:10;;;;;;;12.43;7.93;;;20.40;34.50;;;;;;5073926;28;20202;-57
2023/11/25 11:07:39;;;;;;;13.10;8.25;;;20.40;34.50;;;;;;5073970;28;20187;-58
2023/11/25 11:10:10;;;;;;;12.63;8.20;;;20.40;34.50;;;;;;5073260;28;20333;-57
2023/11/25 11:12:43;;;;;;;12.52;7.43;;;20.40;34.50;;;;;;5072757;28;20190;-59
2023/11/25 11:15:16;;;;;;;11.13;6.95;;;20.40;35.10;;;;;;5073829;28;20190;-59
2023/11/25 11:17:53;;;;;;;14.57;7.85;;;20.50;35.10;;;;;;5073938;28;20214;-58
2023/11/25 11:20:25;;;;;;;10.02;6.47;;;20.50;35.10;;;;;;5073451;28;20244;-58
2023/11/25 11:22:52;;;;;;;10.00;6.28;;;20.50;35.10;;;;;;5073766;28;20274;-56
2023/11/25 11:25:26;;;;;;;9.73;6.45;;;20.50;34.40;;;;;;5073240;28;20289;-57
2023/11/25 11:28:01;;;;;;;12.50;6.68;;;20.60;34.40;;;;;;5073914;28;20592;-59
2023/11/25 11:30:38;;;;;;;9.95;5.90;;;20.70;34.30;;;;;;5073503;28;20187;-57
2023/11/25 11:33:05;;;;;;;8.35;5.47;;;20.80;34.10;;;;;;5073254;28;20289;-55
2023/11/25 11:35:39;;;;;;;8.52;5.88;;;20.90;34.00;;;;;;5073046;28;20189;-58
2023/11/25 11:38:24;;;;;;;10.57;5.50;;;21.00;34.60;;;;;;5073442;28;20240;-59
2023/11/25 11:40:53;;;;;;;8.73;5.40;;;21.00;33.80;;;;;;5072930;28;20198;-60
2023/11/25 11:43:21;;;;;;;8.55;5.45;;;21.00;34.50;;;;;;5073324;28;20187;-59
2023/11/25 11:45:49;;;;;;;7.90;5.13;;;21.00;33.80;;;;;;5072827;28;20542;-57
2023/11/25 11:48:16;;;;;;;8.38;5.18;;;21.00;33.80;;;;;;5072797;28;20187;-60
2023/11/25 11:50:45;;;;;;;7.85;4.57;;;21.00;33.90;;;;;;5073114;28;20193;-60
2023/11/25 11:53:15;;;;;;;7.13;4.60;;;21.00;33.90;;;;;;5073231;28;20241;-60
2023/11/25 11:55:44;;;;;;;7.93;5.18;;;21.00;34.50;;;;;;5072640;28;20657;-59
2023/11/25 11:58:12;;;;;;;7.28;4.80;;;21.10;33.70;;;;;;5072898;28;20716;-58
2023/11/25 12:00:47;;;;;;;8.43;4.07;;;21.10;33.60;;;;;;5072971;28;20193;-59
2023/11/25 12:03:15;;;;;;;7.60;4.13;;;21.10;33.50;;;;;;5072399;28;20575;-59
2023/11/25 12:05:41;;;;;;;8.15;4.30;;;21.20;33.60;;;;;;5072519;28;20287;-58
2023/11/25 12:08:08;;;;;;;7.53;4.20;;;21.10;34.10;;;;;;5073044;28;20221;-60
2023/11/25 12:10:35;;;;;;;7.00;4.03;;;21.10;33.50;;;;;;5071971;28;20272;-60
2023/11/25 12:13:03;;;;;;;7.45;3.38;;;21.10;33.50;;;;;;5072463;28;20210;-58
2023/11/25 12:15:30;;;;;;;7.75;3.97;;;21.10;33.50;;;;;;5072727;28;20206;-60
2023/11/25 12:17:58;;;;;;;6.53;3.55;;;21.10;33.60;;;;;;5072306;28;20215;-58
2023/11/25 12:20:27;;;;;;;5.82;3.60;;;21.00;33.60;;;;;;5072402;28;20282;-59
2023/11/25 12:22:55;;;;;;;5.90;3.40;;;21.00;33.70;;;;;;5072302;28;20221;-59
2023/11/25 12:25:22;;;;;;;8.07;3.85;;;21.00;33.70;;;;;;5072206;28;20195;-58
2023/11/25 12:27:54;;;;;;;6.55;3.90;;;20.90;34.30;;;;;;5072608;28;20228;-57
2023/11/25 12:30:21;;;;;;;5.15;3.20;;;20.90;33.70;;;;;;5072546;28;20220;-60
2023/11/25 12:32:47;;;;;;;5.57;3.17;;;20.90;34.30;;;;;;5071898;28;20223;-56
2023/11/25 12:35:16;;;;;;;6.85;3.20;;;20.90;33.70;;;;;;5072211;28;20187;-60
2023/11/25 12:37:43;;;;;;;6.00;3.63;;;20.90;34.30;;;;;;5072097;28;20225;-61
2023/11/25 12:40:19;;;;;;;4.78;2.95;;;20.90;34.40;;;;;;5071952;28;20187;-58
2023/11/25 12:42:46;;;;;;;5.63;2.95;;;20.90;33.70;;;;;;5072408;28;20232;-57
2023/11/25 12:45:28;;;;;;;6.68;2.90;;;20.90;33.70;;;;;;5072085;28;20187;-59
2023/11/25 12:47:55;;;;;;;5.75;2.63;;;20.90;33.60;;;;;;5072459;28;20226;-55
2023/11/25 12:50:24;;;;;;;4.70;2.83;;;21.00;33.70;;;;;;5072003;28;20309;-58